sensor_id;sensor_type;location;lat;lon;timestamp;temperature;humidity
5200;DHT22;2619;47.868;11.892;2022-11-18T00:01:32;7.10;99.90
5200;DHT22;2619;47.868;11.892;2022-11-18T00:03:58;7.10;99.90
5200;DHT22;2619;47.868;11.892;2022-11-18T00:06:25;7.10;99.90
5200;DHT22;2619;47.868;11.892;2022-11-18T00:08:54;7.00;99.90
5200;DHT22;2619;47.868;11.892;2022-11-18T00:11:22;7.00;99.90
5200;DHT22;2619;47.868;11.892;2022-11-18T00:14:25;7.00;99.90
5200;DHT22;2619;47.868;11.892;2022-11-18T00:17:06;7.00;99.90
5200;DHT22;2619;47.868;11.892;2022-11-18T00:19:33;7.00;99.90
5200;DHT22;2619;47.868;11.892;2022-11-18T00:22:00;7.00;99.90
5200;DHT22;2619;47.868;11.892;2022-11-18T00:24:26;7.00;99.90
5200;DHT22;2619;47.868;11.892;2022-11-18T00:26:52;7.00;99.90
5200;DHT22;2619;47.868;11.892;2022-11-18T00:29:19;7.00;99.90
5200;DHT22;2619;47.868;11.892;2022-11-18T00:31:45;7.00;99.90
5200;DHT22;2619;47.868;11.892;2022-11-18T00:34:12;6.90;99.90
5200;DHT22;2619;47.868;11.892;2022-11-18T00:36:39;6.90;99.90
5200;DHT22;2619;47.868;11.892;2022-11-18T00:39:05;6.90;99.90
5200;DHT22;2619;47.868;11.892;2022-11-18T00:41:31;6.90;99.90
5200;DHT22;2619;47.868;11.892;2022-11-18T00:44:15;6.80;99.90
5200;DHT22;2619;47.868;11.892;2022-11-18T00:46:41;6.90;99.90
5200;DHT22;2619;47.868;11.892;2022-11-18T00:49:07;6.90;99.90
5200;DHT22;2619;47.868;11.892;2022-11-18T00:51:33;6.90;99.90
5200;DHT22;2619;47.868;11.892;2022-11-18T00:53:59;6.90;99.90
5200;DHT22;2619;47.868;11.892;2022-11-18T00:56:24;6.80;99.90
5200;DHT22;2619;47.868;11.892;2022-11-18T00:58:50;6.80;99.90
5200;DHT22;2619;47.868;11.892;2022-11-18T01:01:16;6.80;99.90
5200;DHT22;2619;47.868;11.892;2022-11-18T01:03:41;6.90;99.90
5200;DHT22;2619;47.868;11.892;2022-11-18T01:06:07;6.80;99.90
5200;DHT22;2619;47.868;11.892;2022-11-18T01:08:33;6.90;99.90
5200;DHT22;2619;47.868;11.892;2022-11-18T01:10:58;6.90;99.90
5200;DHT22;2619;47.868;11.892;2022-11-18T01:13:44;6.90;99.90
5200;DHT22;2619;47.868;11.892;2022-11-18T01:16:10;6.90;99.90
5200;DHT22;2619;47.868;11.892;2022-11-18T01:18:35;7.00;99.90
5200;DHT22;2619;47.868;11.892;2022-11-18T01:21:02;7.00;99.90
5200;DHT22;2619;47.868;11.892;2022-11-18T01:23:28;7.00;99.90
5200;DHT22;2619;47.868;11.892;2022-11-18T01:25:54;7.00;99.90
5200;DHT22;2619;47.868;11.892;2022-11-18T01:28:20;7.00;99.90
5200;DHT22;2619;47.868;11.892;2022-11-18T01:30:45;7.00;99.90
5200;DHT22;2619;47.868;11.892;2022-11-18T01:33:11;7.00;99.90
5200;DHT22;2619;47.868;11.892;2022-11-18T01:35:39;7.00;99.90
5200;DHT22;2619;47.868;11.892;2022-11-18T01:38:06;7.00;99.90
5200;DHT22;2619;47.868;11.892;2022-11-18T01:40:33;7.00;99.90
5200;DHT22;2619;47.868;11.892;2022-11-18T01:42:58;6.90;99.90
5200;DHT22;2619;47.868;11.892;2022-11-18T01:48:17;6.80;99.90
5200;DHT22;2619;47.868;11.892;2022-11-18T01:51:01;6.90;99.90
5200;DHT22;2619;47.868;11.892;2022-11-18T01:53:40;6.80;99.90
5200;DHT22;2619;47.868;11.892;2022-11-18T01:56:11;6.80;99.90
5200;DHT22;2619;47.868;11.892;2022-11-18T01:58:43;6.80;99.90
5200;DHT22;2619;47.868;11.892;2022-11-18T02:01:11;6.80;99.90
5200;DHT22;2619;47.868;11.892;2022-11-18T02:03:37;6.80;99.90
5200;DHT22;2619;47.868;11.892;2022-11-18T02:06:04;6.70;99.90
5200;DHT22;2619;47.868;11.892;2022-11-18T02:08:31;6.70;99.90
5200;DHT22;2619;47.868;11.892;2022-11-18T02:10:57;6.70;99.90
5200;DHT22;2619;47.868;11.892;2022-11-18T02:13:22;6.70;99.90
5200;DHT22;2619;47.868;11.892;2022-11-18T02:16:10;6.70;99.90
5200;DHT22;2619;47.868;11.892;2022-11-18T02:19:24;6.70;99.90
5200;DHT22;2619;47.868;11.892;2022-11-18T02:24:27;6.70;99.90
5200;DHT22;2619;47.868;11.892;2022-11-18T02:30:05;6.80;99.90
5200;DHT22;2619;47.868;11.892;2022-11-18T02:32:59;6.80;99.90
5200;DHT22;2619;47.868;11.892;2022-11-18T02:35:33;6.70;99.90
5200;DHT22;2619;47.868;11.892;2022-11-18T02:38:26;6.70;99.90
5200;DHT22;2619;47.868;11.892;2022-11-18T02:40:57;6.70;99.90
5200;DHT22;2619;47.868;11.892;2022-11-18T02:43:33;6.60;99.90
5200;DHT22;2619;47.868;11.892;2022-11-18T02:46:05;6.60;99.90
5200;DHT22;2619;47.868;11.892;2022-11-18T02:48:35;6.60;99.90
5200;DHT22;2619;47.868;11.892;2022-11-18T02:51:03;6.60;99.90
5200;DHT22;2619;47.868;11.892;2022-11-18T02:53:32;6.70;99.90
5200;DHT22;2619;47.868;11.892;2022-11-18T02:55:59;6.70;99.90
5200;DHT22;2619;47.868;11.892;2022-11-18T02:58:26;6.70;99.90
5200;DHT22;2619;47.868;11.892;2022-11-18T03:00:57;6.80;99.90
5200;DHT22;2619;47.868;11.892;2022-11-18T03:03:28;6.80;99.90
5200;DHT22;2619;47.868;11.892;2022-11-18T03:06:18;6.80;99.90
5200;DHT22;2619;47.868;11.892;2022-11-18T03:11:31;6.80;99.90
5200;DHT22;2619;47.868;11.892;2022-11-18T03:14:07;6.90;99.90
5200;DHT22;2619;47.868;11.892;2022-11-18T03:16:50;6.90;99.90
5200;DHT22;2619;47.868;11.892;2022-11-18T03:22:18;6.80;99.90
5200;DHT22;2619;47.868;11.892;2022-11-18T03:24:55;6.80;99.90
5200;DHT22;2619;47.868;11.892;2022-11-18T03:27:39;6.80;99.90
5200;DHT22;2619;47.868;11.892;2022-11-18T03:30:12;6.80;99.90
5200;DHT22;2619;47.868;11.892;2022-11-18T03:32:43;6.80;99.90
5200;DHT22;2619;47.868;11.892;2022-11-18T03:35:20;6.80;99.90
5200;DHT22;2619;47.868;11.892;2022-11-18T03:37:48;6.80;99.90
5200;DHT22;2619;47.868;11.892;2022-11-18T03:40:29;6.80;99.90
5200;DHT22;2619;47.868;11.892;2022-11-18T03:43:11;6.90;99.90
5200;DHT22;2619;47.868;11.892;2022-11-18T03:45:47;6.80;99.90
5200;DHT22;2619;47.868;11.892;2022-11-18T03:48:15;6.80;99.90
5200;DHT22;2619;47.868;11.892;2022-11-18T03:50:46;6.90;99.90
5200;DHT22;2619;47.868;11.892;2022-11-18T03:53:15;6.90;99.90
5200;DHT22;2619;47.868;11.892;2022-11-18T03:55:45;7.00;99.90
5200;DHT22;2619;47.868;11.892;2022-11-18T04:00:48;7.00;99.90
5200;DHT22;2619;47.868;11.892;2022-11-18T04:03:16;7.00;99.90
5200;DHT22;2619;47.868;11.892;2022-11-18T04:05:42;7.00;99.90
5200;DHT22;2619;47.868;11.892;2022-11-18T04:08:21;6.90;99.90
5200;DHT22;2619;47.868;11.892;2022-11-18T04:10:58;6.90;99.90
5200;DHT22;2619;47.868;11.892;2022-11-18T04:13:32;6.90;99.90
5200;DHT22;2619;47.868;11.892;2022-11-18T04:15:59;6.90;99.90
5200;DHT22;2619;47.868;11.892;2022-11-18T04:18:25;6.90;99.90
5200;DHT22;2619;47.868;11.892;2022-11-18T04:20:51;6.90;99.90
5200;DHT22;2619;47.868;11.892;2022-11-18T04:23:16;6.80;99.90
5200;DHT22;2619;47.868;11.892;2022-11-18T04:25:42;6.90;99.90
5200;DHT22;2619;47.868;11.892;2022-11-18T04:28:07;6.90;99.90
5200;DHT22;2619;47.868;11.892;2022-11-18T04:30:34;6.90;99.90
5200;DHT22;2619;47.868;11.892;2022-11-18T04:33:00;6.90;99.90
5200;DHT22;2619;47.868;11.892;2022-11-18T04:35:26;6.90;99.90
5200;DHT22;2619;47.868;11.892;2022-11-18T04:37:52;6.90;99.90
5200;DHT22;2619;47.868;11.892;2022-11-18T04:40:17;6.90;99.90
5200;DHT22;2619;47.868;11.892;2022-11-18T04:42:43;6.90;99.90
5200;DHT22;2619;47.868;11.892;2022-11-18T04:45:09;6.90;99.90
5200;DHT22;2619;47.868;11.892;2022-11-18T04:47:35;6.90;99.90
5200;DHT22;2619;47.868;11.892;2022-11-18T04:50:01;6.90;99.90
5200;DHT22;2619;47.868;11.892;2022-11-18T04:52:26;6.90;99.90
5200;DHT22;2619;47.868;11.892;2022-11-18T04:54:52;6.90;99.90
5200;DHT22;2619;47.868;11.892;2022-11-18T04:57:18;6.90;99.90
5200;DHT22;2619;47.868;11.892;2022-11-18T04:59:43;7.00;99.90
5200;DHT22;2619;47.868;11.892;2022-11-18T05:02:09;7.00;99.90
5200;DHT22;2619;47.868;11.892;2022-11-18T05:04:34;6.90;99.90
5200;DHT22;2619;47.868;11.892;2022-11-18T05:07:02;6.90;99.90
5200;DHT22;2619;47.868;11.892;2022-11-18T05:09:27;6.90;99.90
5200;DHT22;2619;47.868;11.892;2022-11-18T05:11:53;6.90;99.90
5200;DHT22;2619;47.868;11.892;2022-11-18T05:14:38;6.90;99.90
5200;DHT22;2619;47.868;11.892;2022-11-18T05:17:06;6.80;99.90
5200;DHT22;2619;47.868;11.892;2022-11-18T05:19:32;6.80;99.90
5200;DHT22;2619;47.868;11.892;2022-11-18T05:21:58;6.80;99.90
5200;DHT22;2619;47.868;11.892;2022-11-18T05:24:23;6.70;99.90
5200;DHT22;2619;47.868;11.892;2022-11-18T05:26:50;6.70;99.90
5200;DHT22;2619;47.868;11.892;2022-11-18T05:29:17;6.70;99.90
5200;DHT22;2619;47.868;11.892;2022-11-18T05:31:44;6.70;99.90
5200;DHT22;2619;47.868;11.892;2022-11-18T05:34:10;6.70;99.90
5200;DHT22;2619;47.868;11.892;2022-11-18T05:36:36;6.60;99.90
5200;DHT22;2619;47.868;11.892;2022-11-18T05:39:02;6.70;99.90
5200;DHT22;2619;47.868;11.892;2022-11-18T05:41:27;6.70;99.90
5200;DHT22;2619;47.868;11.892;2022-11-18T05:44:12;6.60;99.90
5200;DHT22;2619;47.868;11.892;2022-11-18T05:46:37;6.60;99.90
5200;DHT22;2619;47.868;11.892;2022-11-18T05:49:03;6.50;99.90
5200;DHT22;2619;47.868;11.892;2022-11-18T05:51:28;6.60;99.90
5200;DHT22;2619;47.868;11.892;2022-11-18T05:53:55;6.50;99.90
5200;DHT22;2619;47.868;11.892;2022-11-18T05:56:27;6.60;99.90
5200;DHT22;2619;47.868;11.892;2022-11-18T05:58:53;6.60;99.90
5200;DHT22;2619;47.868;11.892;2022-11-18T06:01:23;6.50;99.90
5200;DHT22;2619;47.868;11.892;2022-11-18T06:03:50;6.50;99.90
5200;DHT22;2619;47.868;11.892;2022-11-18T06:06:18;6.50;99.90
5200;DHT22;2619;47.868;11.892;2022-11-18T06:08:57;6.40;99.90
5200;DHT22;2619;47.868;11.892;2022-11-18T06:11:24;6.40;99.90
5200;DHT22;2619;47.868;11.892;2022-11-18T06:14:03;6.40;99.90
5200;DHT22;2619;47.868;11.892;2022-11-18T06:16:31;6.30;99.90
5200;DHT22;2619;47.868;11.892;2022-11-18T06:18:58;6.30;99.90
5200;DHT22;2619;47.868;11.892;2022-11-18T06:21:24;6.30;99.90
5200;DHT22;2619;47.868;11.892;2022-11-18T06:23:50;6.20;99.90
5200;DHT22;2619;47.868;11.892;2022-11-18T06:26:16;6.10;99.90
5200;DHT22;2619;47.868;11.892;2022-11-18T06:28:43;6.10;99.90
5200;DHT22;2619;47.868;11.892;2022-11-18T06:31:10;6.10;99.90
5200;DHT22;2619;47.868;11.892;2022-11-18T06:33:36;6.10;99.90
5200;DHT22;2619;47.868;11.892;2022-11-18T06:36:01;6.10;99.90
5200;DHT22;2619;47.868;11.892;2022-11-18T06:38:27;6.00;99.90
5200;DHT22;2619;47.868;11.892;2022-11-18T06:40:57;6.00;99.90
5200;DHT22;2619;47.868;11.892;2022-11-18T06:43:22;5.90;99.90
5200;DHT22;2619;47.868;11.892;2022-11-18T06:46:05;6.00;99.90
5200;DHT22;2619;47.868;11.892;2022-11-18T06:48:50;6.00;99.90
5200;DHT22;2619;47.868;11.892;2022-11-18T06:51:16;6.00;99.90
5200;DHT22;2619;47.868;11.892;2022-11-18T06:53:42;6.10;99.90
5200;DHT22;2619;47.868;11.892;2022-11-18T06:56:10;6.10;99.90
5200;DHT22;2619;47.868;11.892;2022-11-18T06:58:36;6.20;99.90
5200;DHT22;2619;47.868;11.892;2022-11-18T07:01:20;6.20;99.90
5200;DHT22;2619;47.868;11.892;2022-11-18T07:03:46;6.30;99.90
5200;DHT22;2619;47.868;11.892;2022-11-18T07:06:17;6.30;99.90
5200;DHT22;2619;47.868;11.892;2022-11-18T07:08:44;6.40;99.90
5200;DHT22;2619;47.868;11.892;2022-11-18T07:11:12;6.50;99.90
5200;DHT22;2619;47.868;11.892;2022-11-18T07:13:38;6.50;99.90
5200;DHT22;2619;47.868;11.892;2022-11-18T07:16:09;6.60;99.90
5200;DHT22;2619;47.868;11.892;2022-11-18T07:18:37;6.60;99.90
5200;DHT22;2619;47.868;11.892;2022-11-18T07:21:11;6.80;99.90
5200;DHT22;2619;47.868;11.892;2022-11-18T07:23:37;6.80;99.90
5200;DHT22;2619;47.868;11.892;2022-11-18T07:26:03;6.90;99.90
5200;DHT22;2619;47.868;11.892;2022-11-18T07:28:29;7.00;99.90
5200;DHT22;2619;47.868;11.892;2022-11-18T07:31:12;7.00;99.90
5200;DHT22;2619;47.868;11.892;2022-11-18T07:33:39;7.10;99.90
5200;DHT22;2619;47.868;11.892;2022-11-18T07:36:11;7.10;99.90
5200;DHT22;2619;47.868;11.892;2022-11-18T07:38:37;7.20;99.90
5200;DHT22;2619;47.868;11.892;2022-11-18T07:41:14;7.30;99.90
5200;DHT22;2619;47.868;11.892;2022-11-18T07:43:40;7.40;99.90
5200;DHT22;2619;47.868;11.892;2022-11-18T07:48:38;7.50;99.90
5200;DHT22;2619;47.868;11.892;2022-11-18T07:51:04;7.60;99.90
5200;DHT22;2619;47.868;11.892;2022-11-18T07:53:31;7.70;99.90
5200;DHT22;2619;47.868;11.892;2022-11-18T07:55:57;7.80;99.90
5200;DHT22;2619;47.868;11.892;2022-11-18T07:58:22;7.80;99.90
5200;DHT22;2619;47.868;11.892;2022-11-18T08:00:48;7.90;99.90
5200;DHT22;2619;47.868;11.892;2022-11-18T08:03:13;7.90;99.90
5200;DHT22;2619;47.868;11.892;2022-11-18T08:05:39;8.00;99.90
5200;DHT22;2619;47.868;11.892;2022-11-18T08:08:04;8.00;99.90
5200;DHT22;2619;47.868;11.892;2022-11-18T08:10:30;8.10;99.90
5200;DHT22;2619;47.868;11.892;2022-11-18T08:12:56;8.10;99.90
5200;DHT22;2619;47.868;11.892;2022-11-18T08:15:22;8.20;99.90
5200;DHT22;2619;47.868;11.892;2022-11-18T08:17:48;8.20;99.90
5200;DHT22;2619;47.868;11.892;2022-11-18T08:20:14;8.30;99.90
5200;DHT22;2619;47.868;11.892;2022-11-18T08:22:40;8.40;99.90
5200;DHT22;2619;47.868;11.892;2022-11-18T08:25:06;8.40;99.90
5200;DHT22;2619;47.868;11.892;2022-11-18T08:27:32;8.40;99.90
5200;DHT22;2619;47.868;11.892;2022-11-18T08:29:58;8.50;99.90
5200;DHT22;2619;47.868;11.892;2022-11-18T08:32:24;8.60;99.90
5200;DHT22;2619;47.868;11.892;2022-11-18T08:34:50;8.70;99.90
5200;DHT22;2619;47.868;11.892;2022-11-18T08:37:16;8.70;99.90
5200;DHT22;2619;47.868;11.892;2022-11-18T08:39:42;8.70;99.90
5200;DHT22;2619;47.868;11.892;2022-11-18T08:42:08;8.70;99.90
5200;DHT22;2619;47.868;11.892;2022-11-18T08:44:34;8.70;99.90
5200;DHT22;2619;47.868;11.892;2022-11-18T08:47:00;8.70;99.90
5200;DHT22;2619;47.868;11.892;2022-11-18T08:49:26;8.80;99.90
5200;DHT22;2619;47.868;11.892;2022-11-18T08:51:51;8.80;99.90
5200;DHT22;2619;47.868;11.892;2022-11-18T08:54:17;8.80;99.90
5200;DHT22;2619;47.868;11.892;2022-11-18T08:56:43;8.90;99.90
5200;DHT22;2619;47.868;11.892;2022-11-18T08:59:08;8.90;99.90
5200;DHT22;2619;47.868;11.892;2022-11-18T09:01:38;9.00;99.90
5200;DHT22;2619;47.868;11.892;2022-11-18T09:04:06;9.00;99.90
5200;DHT22;2619;47.868;11.892;2022-11-18T09:06:31;9.10;99.90
5200;DHT22;2619;47.868;11.892;2022-11-18T09:08:59;9.00;99.90
5200;DHT22;2619;47.868;11.892;2022-11-18T09:11:26;9.10;99.90
5200;DHT22;2619;47.868;11.892;2022-11-18T09:13:52;9.10;99.90
5200;DHT22;2619;47.868;11.892;2022-11-18T09:16:19;9.00;99.90
5200;DHT22;2619;47.868;11.892;2022-11-18T09:18:44;9.10;99.90
5200;DHT22;2619;47.868;11.892;2022-11-18T09:21:10;9.10;99.90
5200;DHT22;2619;47.868;11.892;2022-11-18T09:23:37;9.10;99.90
5200;DHT22;2619;47.868;11.892;2022-11-18T09:26:09;9.00;99.90
5200;DHT22;2619;47.868;11.892;2022-11-18T09:28:35;9.10;99.90
5200;DHT22;2619;47.868;11.892;2022-11-18T09:31:08;9.10;99.90
5200;DHT22;2619;47.868;11.892;2022-11-18T09:33:34;9.30;99.90
5200;DHT22;2619;47.868;11.892;2022-11-18T09:36:01;9.40;99.90
5200;DHT22;2619;47.868;11.892;2022-11-18T09:38:31;9.50;99.90
5200;DHT22;2619;47.868;11.892;2022-11-18T09:49:10;9.50;99.90
5200;DHT22;2619;47.868;11.892;2022-11-18T09:51:44;9.70;99.90
5200;DHT22;2619;47.868;11.892;2022-11-18T09:54:16;9.70;99.90
5200;DHT22;2619;47.868;11.892;2022-11-18T09:56:45;9.80;99.90
5200;DHT22;2619;47.868;11.892;2022-11-18T09:59:12;9.80;99.90
5200;DHT22;2619;47.868;11.892;2022-11-18T10:01:39;9.80;99.90
5200;DHT22;2619;47.868;11.892;2022-11-18T10:04:05;9.70;99.90
5200;DHT22;2619;47.868;11.892;2022-11-18T10:06:32;9.80;99.90
5200;DHT22;2619;47.868;11.892;2022-11-18T10:11:39;10.00;99.90
5200;DHT22;2619;47.868;11.892;2022-11-18T10:14:45;10.10;99.90
5200;DHT22;2619;47.868;11.892;2022-11-18T10:19:54;10.30;99.90
5200;DHT22;2619;47.868;11.892;2022-11-18T10:24:56;10.40;99.90
5200;DHT22;2619;47.868;11.892;2022-11-18T10:27:26;10.50;99.90
5200;DHT22;2619;47.868;11.892;2022-11-18T10:30:00;10.50;99.90
5200;DHT22;2619;47.868;11.892;2022-11-18T10:32:26;10.40;99.90
5200;DHT22;2619;47.868;11.892;2022-11-18T10:34:56;10.50;99.90
5200;DHT22;2619;47.868;11.892;2022-11-18T10:37:32;10.50;99.90
5200;DHT22;2619;47.868;11.892;2022-11-18T10:40:02;10.60;99.90
5200;DHT22;2619;47.868;11.892;2022-11-18T10:42:34;10.60;99.90
5200;DHT22;2619;47.868;11.892;2022-11-18T10:50:45;10.40;99.90
5200;DHT22;2619;47.868;11.892;2022-11-18T10:53:30;10.40;99.90
5200;DHT22;2619;47.868;11.892;2022-11-18T10:56:01;10.40;99.90
5200;DHT22;2619;47.868;11.892;2022-11-18T10:58:33;10.40;99.90
5200;DHT22;2619;47.868;11.892;2022-11-18T11:01:20;10.40;99.90
5200;DHT22;2619;47.868;11.892;2022-11-18T11:04:10;10.30;99.90
5200;DHT22;2619;47.868;11.892;2022-11-18T11:06:37;10.30;99.90
5200;DHT22;2619;47.868;11.892;2022-11-18T11:14:35;10.30;99.90
5200;DHT22;2619;47.868;11.892;2022-11-18T11:17:33;10.30;99.90
5200;DHT22;2619;47.868;11.892;2022-11-18T11:22:31;10.20;99.90
5200;DHT22;2619;47.868;11.892;2022-11-18T11:24:57;10.20;99.90
5200;DHT22;2619;47.868;11.892;2022-11-18T11:27:35;10.40;99.90
5200;DHT22;2619;47.868;11.892;2022-11-18T11:30:19;10.30;99.90
5200;DHT22;2619;47.868;11.892;2022-11-18T11:36:04;10.20;99.90
5200;DHT22;2619;47.868;11.892;2022-11-18T11:38:45;10.20;99.90
5200;DHT22;2619;47.868;11.892;2022-11-18T11:47:03;10.60;99.90
5200;DHT22;2619;47.868;11.892;2022-11-18T11:50:12;10.40;99.90
5200;DHT22;2619;47.868;11.892;2022-11-18T11:55:33;10.50;99.90
5200;DHT22;2619;47.868;11.892;2022-11-18T12:03:47;9.90;99.90
5200;DHT22;2619;47.868;11.892;2022-11-18T12:06:15;10.00;99.90
5200;DHT22;2619;47.868;11.892;2022-11-18T12:09:06;10.00;99.90
5200;DHT22;2619;47.868;11.892;2022-11-18T12:11:44;9.60;99.90
5200;DHT22;2619;47.868;11.892;2022-11-18T12:14:27;9.60;99.90
5200;DHT22;2619;47.868;11.892;2022-11-18T12:19:30;9.60;99.90
5200;DHT22;2619;47.868;11.892;2022-11-18T12:21:57;9.50;99.90
5200;DHT22;2619;47.868;11.892;2022-11-18T12:26:58;9.60;99.90
5200;DHT22;2619;47.868;11.892;2022-11-18T12:29:26;9.70;99.90
5200;DHT22;2619;47.868;11.892;2022-11-18T12:31:53;9.60;99.90
5200;DHT22;2619;47.868;11.892;2022-11-18T12:34:42;9.50;99.90
5200;DHT22;2619;47.868;11.892;2022-11-18T12:40:09;9.50;99.90
5200;DHT22;2619;47.868;11.892;2022-11-18T12:42:43;9.30;99.90
5200;DHT22;2619;47.868;11.892;2022-11-18T12:48:25;8.70;99.90
5200;DHT22;2619;47.868;11.892;2022-11-18T12:50:53;8.60;99.90
5200;DHT22;2619;47.868;11.892;2022-11-18T12:55:57;8.30;99.90
5200;DHT22;2619;47.868;11.892;2022-11-18T12:58:25;8.20;99.90
5200;DHT22;2619;47.868;11.892;2022-11-18T13:01:06;8.20;99.90
5200;DHT22;2619;47.868;11.892;2022-11-18T13:03:32;8.00;99.90
5200;DHT22;2619;47.868;11.892;2022-11-18T13:06:06;7.90;99.90
5200;DHT22;2619;47.868;11.892;2022-11-18T13:08:32;7.70;99.90
5200;DHT22;2619;47.868;11.892;2022-11-18T13:11:07;7.70;99.90
5200;DHT22;2619;47.868;11.892;2022-11-18T13:13:52;7.70;99.90
5200;DHT22;2619;47.868;11.892;2022-11-18T13:16:38;7.50;99.90
5200;DHT22;2619;47.868;11.892;2022-11-18T13:19:23;7.50;99.90
5200;DHT22;2619;47.868;11.892;2022-11-18T13:21:57;7.40;99.90
5200;DHT22;2619;47.868;11.892;2022-11-18T13:24:44;7.30;99.90
5200;DHT22;2619;47.868;11.892;2022-11-18T13:27:21;7.20;99.90
5200;DHT22;2619;47.868;11.892;2022-11-18T13:30:00;7.20;99.90
5200;DHT22;2619;47.868;11.892;2022-11-18T13:32:27;7.10;99.90
5200;DHT22;2619;47.868;11.892;2022-11-18T13:34:56;7.10;99.90
5200;DHT22;2619;47.868;11.892;2022-11-18T13:37:28;6.90;99.90
5200;DHT22;2619;47.868;11.892;2022-11-18T13:39:54;6.50;99.90
5200;DHT22;2619;47.868;11.892;2022-11-18T13:42:24;6.40;99.90
5200;DHT22;2619;47.868;11.892;2022-11-18T13:45:00;6.30;99.90
5200;DHT22;2619;47.868;11.892;2022-11-18T13:47:49;6.30;99.90
5200;DHT22;2619;47.868;11.892;2022-11-18T13:53:08;6.20;99.90
5200;DHT22;2619;47.868;11.892;2022-11-18T13:55:49;6.20;99.90
5200;DHT22;2619;47.868;11.892;2022-11-18T14:01:02;6.30;99.90
5200;DHT22;2619;47.868;11.892;2022-11-18T14:05:57;6.40;99.90
5200;DHT22;2619;47.868;11.892;2022-11-18T14:08:29;6.40;99.90
5200;DHT22;2619;47.868;11.892;2022-11-18T14:10:55;6.40;99.90
5200;DHT22;2619;47.868;11.892;2022-11-18T14:13:28;6.50;99.90
5200;DHT22;2619;47.868;11.892;2022-11-18T14:15:59;6.50;99.90
5200;DHT22;2619;47.868;11.892;2022-11-18T14:20:52;6.60;99.90
5200;DHT22;2619;47.868;11.892;2022-11-18T14:23:29;6.60;99.90
5200;DHT22;2619;47.868;11.892;2022-11-18T14:25:56;6.50;99.90
5200;DHT22;2619;47.868;11.892;2022-11-18T14:28:28;6.50;99.90
5200;DHT22;2619;47.868;11.892;2022-11-18T14:33:26;6.50;99.90
5200;DHT22;2619;47.868;11.892;2022-11-18T14:38:45;6.40;99.90
5200;DHT22;2619;47.868;11.892;2022-11-18T14:41:12;6.30;99.90
5200;DHT22;2619;47.868;11.892;2022-11-18T14:43:38;6.30;99.90
5200;DHT22;2619;47.868;11.892;2022-11-18T14:46:10;6.30;99.90
5200;DHT22;2619;47.868;11.892;2022-11-18T14:48:36;6.30;99.90
5200;DHT22;2619;47.868;11.892;2022-11-18T14:51:03;6.30;99.90
5200;DHT22;2619;47.868;11.892;2022-11-18T14:53:28;6.20;99.90
5200;DHT22;2619;47.868;11.892;2022-11-18T14:55:56;6.10;99.90
5200;DHT22;2619;47.868;11.892;2022-11-18T14:58:22;6.10;99.90
5200;DHT22;2619;47.868;11.892;2022-11-18T15:00:48;6.10;99.90
5200;DHT22;2619;47.868;11.892;2022-11-18T15:03:14;6.10;99.90
5200;DHT22;2619;47.868;11.892;2022-11-18T15:05:40;6.10;99.90
5200;DHT22;2619;47.868;11.892;2022-11-18T15:08:06;6.00;99.90
5200;DHT22;2619;47.868;11.892;2022-11-18T15:10:32;6.00;99.90
5200;DHT22;2619;47.868;11.892;2022-11-18T15:12:58;6.00;99.90
5200;DHT22;2619;47.868;11.892;2022-11-18T15:15:24;6.00;99.90
5200;DHT22;2619;47.868;11.892;2022-11-18T15:17:50;5.90;99.90
5200;DHT22;2619;47.868;11.892;2022-11-18T15:20:17;5.90;99.90
5200;DHT22;2619;47.868;11.892;2022-11-18T15:22:43;6.00;99.90
5200;DHT22;2619;47.868;11.892;2022-11-18T15:25:09;5.90;99.90
5200;DHT22;2619;47.868;11.892;2022-11-18T15:27:35;5.90;99.90
5200;DHT22;2619;47.868;11.892;2022-11-18T15:30:01;6.00;99.90
5200;DHT22;2619;47.868;11.892;2022-11-18T15:32:27;6.00;99.90
5200;DHT22;2619;47.868;11.892;2022-11-18T15:34:52;5.90;99.90
5200;DHT22;2619;47.868;11.892;2022-11-18T15:37:18;6.00;99.90
5200;DHT22;2619;47.868;11.892;2022-11-18T15:39:43;6.00;99.90
5200;DHT22;2619;47.868;11.892;2022-11-18T15:42:10;6.00;99.90
5200;DHT22;2619;47.868;11.892;2022-11-18T15:44:36;6.10;99.90
5200;DHT22;2619;47.868;11.892;2022-11-18T15:47:02;6.10;99.90
5200;DHT22;2619;47.868;11.892;2022-11-18T15:49:27;6.10;99.90
5200;DHT22;2619;47.868;11.892;2022-11-18T15:51:53;6.20;99.90
5200;DHT22;2619;47.868;11.892;2022-11-18T15:54:19;6.20;99.90
5200;DHT22;2619;47.868;11.892;2022-11-18T15:56:44;6.10;99.90
5200;DHT22;2619;47.868;11.892;2022-11-18T15:59:12;6.10;99.90
5200;DHT22;2619;47.868;11.892;2022-11-18T16:01:47;6.10;99.90
5200;DHT22;2619;47.868;11.892;2022-11-18T16:04:15;6.10;99.90
5200;DHT22;2619;47.868;11.892;2022-11-18T16:06:41;6.20;99.90
5200;DHT22;2619;47.868;11.892;2022-11-18T16:09:10;6.00;99.90
5200;DHT22;2619;47.868;11.892;2022-11-18T16:11:36;5.90;99.90
5200;DHT22;2619;47.868;11.892;2022-11-18T16:14:21;5.80;99.90
5200;DHT22;2619;47.868;11.892;2022-11-18T16:16:48;5.80;99.90
5200;DHT22;2619;47.868;11.892;2022-11-18T16:19:17;5.70;99.90
5200;DHT22;2619;47.868;11.892;2022-11-18T16:21:44;5.80;99.90
5200;DHT22;2619;47.868;11.892;2022-11-18T16:24:16;5.80;99.90
5200;DHT22;2619;47.868;11.892;2022-11-18T16:26:42;5.90;99.90
5200;DHT22;2619;47.868;11.892;2022-11-18T16:29:09;5.90;99.90
5200;DHT22;2619;47.868;11.892;2022-11-18T16:31:35;5.90;99.90
5200;DHT22;2619;47.868;11.892;2022-11-18T16:34:25;6.00;99.90
5200;DHT22;2619;47.868;11.892;2022-11-18T16:36:53;5.90;99.90
5200;DHT22;2619;47.868;11.892;2022-11-18T16:39:21;6.00;99.90
5200;DHT22;2619;47.868;11.892;2022-11-18T16:41:50;6.00;99.90
5200;DHT22;2619;47.868;11.892;2022-11-18T16:44:16;6.00;99.90
5200;DHT22;2619;47.868;11.892;2022-11-18T16:46:46;6.10;99.90
5200;DHT22;2619;47.868;11.892;2022-11-18T16:49:13;6.00;99.90
5200;DHT22;2619;47.868;11.892;2022-11-18T16:51:41;6.00;99.90
5200;DHT22;2619;47.868;11.892;2022-11-18T16:54:07;6.00;99.90
5200;DHT22;2619;47.868;11.892;2022-11-18T16:56:39;6.00;99.90
5200;DHT22;2619;47.868;11.892;2022-11-18T16:59:11;6.00;99.90
5200;DHT22;2619;47.868;11.892;2022-11-18T17:01:36;5.90;99.90
5200;DHT22;2619;47.868;11.892;2022-11-18T17:04:02;5.90;99.90
5200;DHT22;2619;47.868;11.892;2022-11-18T17:06:30;5.80;99.90
5200;DHT22;2619;47.868;11.892;2022-11-18T17:08:57;5.90;99.90
5200;DHT22;2619;47.868;11.892;2022-11-18T17:13:52;5.80;99.90
5200;DHT22;2619;47.868;11.892;2022-11-18T17:16:19;5.80;99.90
5200;DHT22;2619;47.868;11.892;2022-11-18T17:18:46;5.80;99.90
5200;DHT22;2619;47.868;11.892;2022-11-18T17:21:13;5.80;99.90
5200;DHT22;2619;47.868;11.892;2022-11-18T17:23:42;5.80;99.90
5200;DHT22;2619;47.868;11.892;2022-11-18T17:26:09;5.80;99.90
5200;DHT22;2619;47.868;11.892;2022-11-18T17:28:35;5.80;99.90
5200;DHT22;2619;47.868;11.892;2022-11-18T17:33:30;5.90;99.90
5200;DHT22;2619;47.868;11.892;2022-11-18T17:36:03;5.90;99.90
5200;DHT22;2619;47.868;11.892;2022-11-18T17:38:32;5.90;99.90
5200;DHT22;2619;47.868;11.892;2022-11-18T17:40:58;5.80;99.90
5200;DHT22;2619;47.868;11.892;2022-11-18T17:43:25;5.70;99.90
5200;DHT22;2619;47.868;11.892;2022-11-18T17:45:52;5.80;99.90
5200;DHT22;2619;47.868;11.892;2022-11-18T17:48:18;5.80;99.90
5200;DHT22;2619;47.868;11.892;2022-11-18T17:50:45;5.80;99.90
5200;DHT22;2619;47.868;11.892;2022-11-18T17:53:11;5.80;99.90
5200;DHT22;2619;47.868;11.892;2022-11-18T17:55:37;5.70;99.90
5200;DHT22;2619;47.868;11.892;2022-11-18T17:58:02;5.60;99.90